createdAt,value
2023-06-04T00:00:47.839Z,96893.69
2023-06-04T00:01:49.698Z,96881.88
2023-06-04T00:02:52.170Z,96880.84
2023-06-04T00:03:54.588Z,96885.06
2023-06-04T00:04:56.422Z,96886.69
2023-06-04T00:05:58.382Z,96881.72
2023-06-04T00:07:00.072Z,96885.97
2023-06-04T00:08:01.809Z,96887.81
2023-06-04T00:09:03.719Z,96888.03
2023-06-04T00:10:06.092Z,96891.47
2023-06-04T00:11:08.125Z,96889.88
2023-06-04T00:12:10.147Z,96887.81
2023-06-04T00:13:12.035Z,96888.59
2023-06-04T00:14:16.553Z,96894.66
2023-06-04T00:15:18.333Z,96894.31
2023-06-04T00:16:20.221Z,96888.50
2023-06-04T00:17:22.006Z,96881.88
2023-06-04T00:18:23.831Z,96883.59
2023-06-04T00:19:25.798Z,96890.94
2023-06-04T00:20:27.894Z,96886.72
2023-06-04T00:21:30.028Z,96883.31
2023-06-04T00:22:31.942Z,96881.69
2023-06-04T00:23:33.800Z,96882.19
2023-06-04T00:24:36.620Z,96880.56
2023-06-04T00:25:38.457Z,96879.22
2023-06-04T00:26:40.392Z,96884.94
2023-06-04T00:27:42.226Z,96887.78
2023-06-04T00:28:44.061Z,96888.25
2023-06-04T00:29:45.928Z,96878.09
2023-06-04T00:30:47.614Z,96884.44
2023-06-04T00:31:49.378Z,96885.13
2023-06-04T00:32:51.220Z,96885.38
2023-06-04T00:33:53.155Z,96889.25
2023-06-04T00:34:56.414Z,96880.34
2023-06-04T00:35:58.209Z,96882.97
2023-06-04T00:37:03.029Z,96877.16
2023-06-04T00:38:04.766Z,96879.44
2023-06-04T00:39:06.929Z,96874.06
2023-06-04T00:40:09.008Z,96874.53
2023-06-04T00:41:10.864Z,96871.13
2023-06-04T00:42:12.712Z,96873.75
2023-06-04T00:43:14.905Z,96866.31
2023-06-04T00:44:16.687Z,96867.34
2023-06-04T00:45:21.563Z,96866.53
2023-06-04T00:46:28.230Z,96867.25
2023-06-04T00:47:30.089Z,96868.59
2023-06-04T00:48:31.934Z,96868.38
2023-06-04T00:49:33.678Z,96876.03
2023-06-04T00:50:37.080Z,96872.72
2023-06-04T00:51:39.258Z,96874.22
2023-06-04T00:52:41.507Z,96872.16
2023-06-04T00:53:43.759Z,96869.88
2023-06-04T00:54:45.834Z,96866.13
2023-06-04T00:55:47.645Z,96866.69
2023-06-04T00:56:49.588Z,96863.06
2023-06-04T00:57:51.750Z,96860.66
2023-06-04T00:58:55.126Z,96862.69
2023-06-04T00:59:57.046Z,96859.28
2023-06-04T01:01:01.098Z,96857.44
2023-06-04T01:02:17.497Z,96859.84
2023-06-04T01:03:20.834Z,96862.22
2023-06-04T01:04:27.073Z,96859.16
2023-06-04T01:05:36.133Z,96862.91
2023-06-04T01:06:44.190Z,96864.28
2023-06-04T01:07:48.021Z,96863.47
2023-06-04T01:08:51.634Z,96862.13
2023-06-04T01:09:53.503Z,96862.22
2023-06-04T01:10:56.946Z,96861.22
2023-06-04T01:11:59.669Z,96868.66
2023-06-04T01:13:01.489Z,96860.22
2023-06-04T01:14:09.621Z,96862.41
2023-06-04T01:15:12.681Z,96850.50
2023-06-04T01:16:15.812Z,96853.38
2023-06-04T01:17:42.884Z,96853.38
2023-06-04T01:18:45.451Z,96847.03
2023-06-04T01:19:49.398Z,96846.25
2023-06-04T01:20:52.785Z,96851.03
2023-06-04T01:21:56.634Z,96854.44
2023-06-04T01:23:06.816Z,96855.53
2023-06-04T01:24:09.596Z,96856.59
2023-06-04T01:25:30.041Z,96854.88
2023-06-04T01:26:32.806Z,96854.22
2023-06-04T01:27:36.652Z,96853.78
2023-06-04T01:28:38.926Z,96861.97
2023-06-04T01:29:40.688Z,96853.88
2023-06-04T01:30:44.514Z,96863.47
2023-06-04T01:31:46.522Z,96868.03
2023-06-04T01:32:48.499Z,96867.38
2023-06-04T01:33:52.977Z,96869.31
2023-06-04T01:34:55.548Z,96867.25
2023-06-04T01:35:57.548Z,96870.66
2023-06-04T01:36:59.456Z,96868.63
2023-06-04T01:38:01.944Z,96870.00
2023-06-04T01:39:04.522Z,96870.22
2023-06-04T01:40:09.038Z,96871.59
2023-06-04T01:41:11.190Z,96866.13
2023-06-04T01:42:13.023Z,96869.66
2023-06-04T01:43:15.050Z,96868.38
2023-06-04T01:44:16.857Z,96864.59
2023-06-04T01:45:18.626Z,96870.09
2023-06-04T01:46:20.369Z,96874.50
2023-06-04T01:47:22.178Z,96869.03
2023-06-04T01:48:24.046Z,96874.97
2023-06-04T01:49:26.113Z,96872.47
2023-06-04T01:50:28.130Z,96875.09
2023-06-04T01:51:29.968Z,96872.00
2023-06-04T01:52:32.058Z,96869.72
2023-06-04T01:53:33.768Z,96873.38
2023-06-04T01:54:35.592Z,96879.19
2023-06-04T01:55:39.181Z,96878.75
2023-06-04T01:56:40.968Z,96873.03
2023-06-04T01:57:43.689Z,96876.81
2023-06-04T01:58:45.600Z,96881.63
2023-06-04T01:59:47.921Z,96882.78
2023-06-04T02:00:54.208Z,96887.56
2023-06-04T02:01:56.003Z,96880.25
2023-06-04T02:02:58.035Z,96883.22
2023-06-04T02:04:00.185Z,96878.81
2023-06-04T02:05:02.518Z,96879.38
2023-06-04T02:06:06.089Z,96874.69
2023-06-04T02:07:08.483Z,96880.50
2023-06-04T02:08:10.365Z,96876.06
2023-06-04T02:09:12.073Z,96877.63
2023-06-04T02:10:15.182Z,96881.09
2023-06-04T02:11:16.995Z,96881.88
2023-06-04T02:12:19.368Z,96884.31
2023-06-04T02:13:21.438Z,96880.03
2023-06-04T02:14:23.295Z,96890.56
2023-06-04T02:15:25.801Z,96890.56
2023-06-04T02:16:27.678Z,96888.03
2023-06-04T02:17:32.865Z,96886.09
2023-06-04T02:18:35.306Z,96885.19
2023-06-04T02:19:38.245Z,96891.44
2023-06-04T02:20:40.044Z,96893.13
2023-06-04T02:21:41.761Z,96895.44
2023-06-04T02:22:44.455Z,96895.44
2023-06-04T02:23:46.400Z,96898.28
2023-06-04T02:24:49.132Z,96896.66
2023-06-04T02:25:51.329Z,96891.19
2023-06-04T02:26:53.303Z,96899.84
2023-06-04T02:27:55.020Z,96896.22
2023-06-04T02:28:56.799Z,96886.53
2023-06-04T02:29:58.595Z,96884.94
2023-06-04T02:31:00.709Z,96896.59
2023-06-04T02:32:02.835Z,96891.75
2023-06-04T02:33:05.346Z,96895.44
2023-06-04T02:34:07.160Z,96897.81
2023-06-04T02:35:09.458Z,96900.31
2023-06-04T02:36:11.740Z,96903.63
2023-06-04T02:37:13.516Z,96896.09
2023-06-04T02:38:15.237Z,96897.31
2023-06-04T02:39:16.976Z,96905.53
2023-06-04T02:40:18.791Z,96898.72
2023-06-04T02:41:21.294Z,96896.09
2023-06-04T02:42:23.103Z,96894.47
2023-06-04T02:43:24.972Z,96892.28
2023-06-04T02:44:27.733Z,96895.72
2023-06-04T02:45:30.219Z,96892.63
2023-06-04T02:46:32.095Z,96896.19
2023-06-04T02:47:34.286Z,96900.66
2023-06-04T02:48:36.127Z,96895.16
2023-06-04T02:49:37.886Z,96899.88
2023-06-04T02:50:40.560Z,96904.09
2023-06-04T02:51:42.584Z,96897.84
2023-06-04T02:52:44.890Z,96899.56
2023-06-04T02:53:47.450Z,96898.41
2023-06-04T02:54:49.281Z,96896.63
2023-06-04T02:55:54.264Z,96896.38
2023-06-04T02:56:56.065Z,96896.72
2023-06-04T02:57:57.949Z,96895.47
2023-06-04T02:59:00.125Z,96894.03
2023-06-04T03:00:02.590Z,96895.97
2023-06-04T03:01:04.671Z,96890.25
2023-06-04T03:02:06.751Z,96888.78
2023-06-04T03:03:08.596Z,96889.34
2023-06-04T03:04:11.555Z,96887.97
2023-06-04T03:05:14.603Z,96893.47
2023-06-04T03:06:16.870Z,96886.25
2023-06-04T03:07:21.939Z,96893.69
2023-06-04T03:08:23.868Z,96892.41
2023-06-04T03:09:25.883Z,96895.03
2023-06-04T03:10:27.613Z,96898.56
2023-06-04T03:11:29.488Z,96894.56
2023-06-04T03:12:31.336Z,96897.84
2023-06-04T03:13:33.716Z,96890.06
2023-06-04T03:14:35.511Z,96889.13
2023-06-04T03:15:40.516Z,96895.53
2023-06-04T03:16:42.417Z,96890.22
2023-06-04T03:17:45.717Z,96894.56
2023-06-04T03:18:47.640Z,96895.72
2023-06-04T03:19:49.774Z,96894.69
2023-06-04T03:20:51.446Z,96896.66
2023-06-04T03:21:53.687Z,96891.75
2023-06-04T03:22:55.810Z,96893.78
2023-06-04T03:23:57.916Z,96895.63
2023-06-04T03:24:59.722Z,96898.47
2023-06-04T03:26:05.008Z,96897.88
2023-06-04T03:27:07.332Z,96898.34
2023-06-04T03:28:09.077Z,96900.72
2023-06-04T03:29:10.749Z,96897.69
2023-06-04T03:30:12.823Z,96904.41
2023-06-04T03:31:14.596Z,96899.72
2023-06-04T03:32:17.367Z,96904.19
2023-06-04T03:33:22.508Z,96903.38
2023-06-04T03:34:26.976Z,96904.09
2023-06-04T03:35:28.776Z,96903.19
2023-06-04T03:36:33.109Z,96912.00
2023-06-04T03:37:34.879Z,96907.53
2023-06-04T03:38:36.688Z,96906.75
2023-06-04T03:39:38.527Z,96908.81
2023-06-04T03:40:40.545Z,96905.13
2023-06-04T03:41:42.864Z,96901.28
2023-06-04T03:42:44.789Z,96906.88
2023-06-04T03:43:46.631Z,96904.03
2023-06-04T03:44:48.531Z,96908.47
2023-06-04T03:45:50.203Z,96903.44
2023-06-04T03:46:52.261Z,96899.81
2023-06-04T03:47:54.164Z,96901.28
2023-06-04T03:48:56.085Z,96905.38
2023-06-04T03:49:58.144Z,96907.19
2023-06-04T03:50:59.939Z,96907.13
2023-06-04T03:52:01.926Z,96901.75
2023-06-04T03:53:06.315Z,96907.22
2023-06-04T03:54:08.178Z,96901.88
2023-06-04T03:55:10.010Z,96901.41
2023-06-04T03:56:12.377Z,96904.75
2023-06-04T03:57:14.242Z,96904.84
2023-06-04T03:58:16.323Z,96901.22
2023-06-04T03:59:18.184Z,96909.66
2023-06-04T04:00:20.444Z,96912.09
2023-06-04T04:01:24.756Z,96907.41
2023-06-04T04:02:27.332Z,96914.47
2023-06-04T04:03:32.435Z,96915.94
2023-06-04T04:04:34.539Z,96922.66
2023-06-04T04:05:37.090Z,96917.19
2023-06-04T04:06:39.103Z,96914.34
2023-06-04T04:07:40.976Z,96921.28
2023-06-04T04:08:45.631Z,96914.00
2023-06-04T04:09:47.402Z,96907.25
2023-06-04T04:10:49.154Z,96909.88
2023-06-04T04:11:50.937Z,96910.69
2023-06-04T04:12:54.943Z,96911.38
2023-06-04T04:13:57.971Z,96918.66
2023-06-04T04:15:00.327Z,96915.03
2023-06-04T04:16:02.346Z,96910.22
2023-06-04T04:17:04.321Z,96904.59
2023-06-04T04:18:06.174Z,96913.06
2023-06-04T04:19:09.189Z,96913.84
2023-06-04T04:20:11.283Z,96917.88
2023-06-04T04:21:13.030Z,96915.81
2023-06-04T04:22:18.699Z,96912.16
2023-06-04T04:23:21.316Z,96918.81
2023-06-04T04:24:27.370Z,96920.75
2023-06-04T04:25:29.213Z,96919.72
2023-06-04T04:26:31.103Z,96915.50
2023-06-04T04:27:35.338Z,96920.16
2023-06-04T04:28:37.117Z,96915.72
2023-06-04T04:29:39.122Z,96917.75
2023-06-04T04:30:42.004Z,96913.78
2023-06-04T04:31:43.872Z,96920.59
2023-06-04T04:32:50.468Z,96916.81
2023-06-04T04:33:53.542Z,96914.66
2023-06-04T04:34:56.399Z,96913.19
2023-06-04T04:36:00.490Z,96911.50
2023-06-04T04:37:04.031Z,96915.28
2023-06-04T04:38:05.803Z,96917.66
2023-06-04T04:39:08.443Z,96912.75
2023-06-04T04:40:11.261Z,96917.56
2023-06-04T04:41:13.597Z,96914.72
2023-06-04T04:42:15.766Z,96907.88
2023-06-04T04:43:17.572Z,96911.19
2023-06-04T04:44:19.406Z,96908.78
2023-06-04T04:45:22.221Z,96913.22
2023-06-04T04:46:23.992Z,96911.50
2023-06-04T04:47:25.898Z,96914.56
2023-06-04T04:48:27.692Z,96923.22
2023-06-04T04:49:29.602Z,96918.56
2023-06-04T04:50:32.732Z,96920.53
2023-06-04T04:51:34.630Z,96917.22
2023-06-04T04:52:36.550Z,96927.25
2023-06-04T04:53:38.363Z,96919.75
2023-06-04T04:54:40.160Z,96929.09
2023-06-04T04:55:42.084Z,96930.13
2023-06-04T04:56:43.819Z,96921.22
2023-06-04T04:57:45.550Z,96919.97
2023-06-04T04:58:47.477Z,96921.09
2023-06-04T04:59:49.442Z,96916.22
2023-06-04T05:00:51.205Z,96906.06
2023-06-04T05:01:53.105Z,96918.41
2023-06-04T05:02:54.962Z,96913.72
2023-06-04T05:03:56.825Z,96915.44
2023-06-04T05:04:58.581Z,96913.19
2023-06-04T05:06:00.344Z,96921.19
2023-06-04T05:07:02.161Z,96915.94
2023-06-04T05:08:03.986Z,96926.00
2023-06-04T05:09:05.767Z,96925.41
2023-06-04T05:10:08.370Z,96926.66
2023-06-04T05:11:10.659Z,96935.19
2023-06-04T05:12:12.515Z,96933.59
2023-06-04T05:13:14.344Z,96937.41
2023-06-04T05:14:16.381Z,96928.03
2023-06-04T05:15:19.671Z,96937.41
2023-06-04T05:16:23.927Z,96928.50
2023-06-04T05:17:33.613Z,96935.47
2023-06-04T05:18:35.922Z,96935.34
2023-06-04T05:19:38.466Z,96935.72
2023-06-04T05:20:40.288Z,96938.91
2023-06-04T05:21:42.222Z,96938.69
2023-06-04T05:22:45.176Z,96936.41
2023-06-04T05:23:49.965Z,96944.03
2023-06-04T05:24:53.065Z,96939.13
2023-06-04T05:25:55.924Z,96939.69
2023-06-04T05:26:58.524Z,96939.69
2023-06-04T05:28:00.202Z,96945.19
2023-06-04T05:29:02.757Z,96942.69
2023-06-04T05:30:05.180Z,96945.53
2023-06-04T05:31:10.181Z,96946.91
2023-06-04T05:32:12.469Z,96950.91
2023-06-04T05:33:19.520Z,96946.22
2023-06-04T05:34:22.692Z,96936.72
2023-06-04T05:35:24.432Z,96946.56
2023-06-04T05:36:26.559Z,96934.00
2023-06-04T05:37:28.438Z,96941.19
2023-06-04T05:38:32.447Z,96946.78
2023-06-04T05:39:34.404Z,96948.38
2023-06-04T05:40:36.380Z,96941.75
2023-06-04T05:41:38.290Z,96936.84
2023-06-04T05:42:40.081Z,96943.25
2023-06-04T05:43:41.935Z,96939.91
2023-06-04T05:44:43.672Z,96935.56
2023-06-04T05:45:45.636Z,96945.38
2023-06-04T05:46:47.477Z,96950.44
2023-06-04T05:47:49.382Z,96946.53
2023-06-04T05:48:52.518Z,96943.91
2023-06-04T05:49:54.233Z,96940.81
2023-06-04T05:50:56.057Z,96936.91
2023-06-04T05:51:57.735Z,96944.00
2023-06-04T05:52:59.518Z,96941.59
2023-06-04T05:54:01.499Z,96943.91
2023-06-04T05:55:03.726Z,96934.44
2023-06-04T05:56:05.630Z,96941.50
2023-06-04T05:57:07.514Z,96938.28
2023-06-04T05:58:09.241Z,96934.88
2023-06-04T05:59:11.051Z,96940.47
2023-06-04T06:00:13.807Z,96943.69
2023-06-04T06:01:16.504Z,96942.41
2023-06-04T06:02:18.453Z,96942.75
2023-06-04T06:03:20.627Z,96946.16
2023-06-04T06:04:22.667Z,96943.09
2023-06-04T06:05:24.664Z,96952.13
2023-06-04T06:06:26.644Z,96952.34
2023-06-04T06:07:28.565Z,96941.47
2023-06-04T06:08:30.325Z,96947.78
2023-06-04T06:09:32.147Z,96946.72
2023-06-04T06:10:33.980Z,96943.09
2023-06-04T06:11:35.820Z,96947.56
2023-06-04T06:12:37.547Z,96950.97
2023-06-04T06:13:39.450Z,96945.50
2023-06-04T06:14:41.320Z,96943.19
2023-06-04T06:15:43.411Z,96945.34
2023-06-04T06:16:45.360Z,96948.56
2023-06-04T06:17:47.193Z,96949.13
2023-06-04T06:18:49.431Z,96945.44
2023-06-04T06:19:51.167Z,96951.28
2023-06-04T06:20:52.939Z,96950.69
2023-06-04T06:21:54.677Z,96948.56
2023-06-04T06:22:56.554Z,96946.72
2023-06-04T06:23:58.275Z,96949.69
2023-06-04T06:25:00.303Z,96955.97
2023-06-04T06:26:03.231Z,96954.94
2023-06-04T06:27:06.549Z,96961.78
2023-06-04T06:28:08.738Z,96955.16
2023-06-04T06:29:10.633Z,96959.88
2023-06-04T06:30:13.438Z,96956.22
2023-06-04T06:31:16.367Z,96948.91
2023-06-04T06:32:18.268Z,96959.41
2023-06-04T06:33:22.920Z,96956.53
2023-06-04T06:34:24.815Z,96956.88
2023-06-04T06:35:26.624Z,96959.88
2023-06-04T06:36:29.914Z,96961.22
2023-06-04T06:37:31.743Z,96957.91
2023-06-04T06:38:33.549Z,96965.91
2023-06-04T06:39:35.290Z,96959.94
2023-06-04T06:40:37.086Z,96962.66
2023-06-04T06:41:39.909Z,96964.59
2023-06-04T06:42:41.718Z,96966.09
2023-06-04T06:43:43.438Z,96969.66
2023-06-04T06:44:45.758Z,96967.03
2023-06-04T06:45:47.568Z,96971.84
2023-06-04T06:46:50.119Z,96968.94
2023-06-04T06:47:52.051Z,96983.94
2023-06-04T06:48:53.835Z,96977.66
2023-06-04T06:49:56.291Z,96976.84
2023-06-04T06:50:58.430Z,96972.63
2023-06-04T06:52:00.207Z,96975.72
2023-06-04T06:53:04.432Z,96972.84
2023-06-04T06:54:09.848Z,96982.59
2023-06-04T06:55:11.725Z,96975.03
2023-06-04T06:56:15.219Z,96980.94
2023-06-04T06:57:18.350Z,96985.03
2023-06-04T06:58:20.921Z,96972.78
2023-06-04T06:59:22.912Z,96978.03
2023-06-04T07:00:25.456Z,96979.41
2023-06-04T07:01:28.099Z,96976.63
2023-06-04T07:02:30.470Z,96977.50
2023-06-04T07:03:32.605Z,96976.00
2023-06-04T07:04:34.383Z,96970.50
2023-06-04T07:05:36.393Z,96975.78
2023-06-04T07:06:38.546Z,96978.63
2023-06-04T07:07:40.384Z,96981.50
2023-06-04T07:08:43.546Z,96975.66
2023-06-04T07:09:45.282Z,96974.88
2023-06-04T07:10:47.377Z,96976.38
2023-06-04T07:11:49.151Z,96977.91
2023-06-04T07:12:50.985Z,96976.06
2023-06-04T07:13:53.034Z,96968.25
2023-06-04T07:14:54.869Z,96976.00
2023-06-04T07:15:57.044Z,96968.44
2023-06-04T07:16:59.071Z,96968.75
2023-06-04T07:18:00.944Z,96969.66
2023-06-04T07:19:03.485Z,96972.38
2023-06-04T07:20:08.105Z,96972.94
2023-06-04T07:21:10.044Z,96971.91
2023-06-04T07:22:11.931Z,96971.97
2023-06-04T07:23:13.708Z,96973.88
2023-06-04T07:24:15.477Z,96978.69
2023-06-04T07:25:17.482Z,96979.47
2023-06-04T07:26:19.391Z,96979.47
2023-06-04T07:27:23.398Z,96977.63
2023-06-04T07:28:25.293Z,96976.94
2023-06-04T07:29:27.146Z,96975.88
2023-06-04T07:30:29.086Z,96974.22
2023-06-04T07:31:31.033Z,96974.78
2023-06-04T07:32:33.197Z,96979.81
2023-06-04T07:33:35.174Z,96973.25
2023-06-04T07:34:38.365Z,96979.63
2023-06-04T07:35:40.105Z,96983.97
2023-06-04T07:36:41.952Z,96979.84
2023-06-04T07:37:46.313Z,96974.09
2023-06-04T07:38:48.068Z,96984.13
2023-06-04T07:39:50.250Z,96979.97
2023-06-04T07:40:52.138Z,96980.81
2023-06-04T07:41:55.290Z,96978.41
2023-06-04T07:42:57.028Z,96976.00
2023-06-04T07:43:59.137Z,96976.78
2023-06-04T07:45:00.863Z,96973.69
2023-06-04T07:46:03.408Z,96973.75
2023-06-04T07:47:05.395Z,96973.28
2023-06-04T07:48:07.344Z,96976.47
2023-06-04T07:49:10.017Z,96974.38
2023-06-04T07:50:12.238Z,96972.31
2023-06-04T07:51:14.857Z,96974.16
2023-06-04T07:52:16.738Z,96972.31
2023-06-04T07:53:18.444Z,96969.22
2023-06-04T07:54:20.311Z,96969.22
2023-06-04T07:55:22.081Z,96970.22
2023-06-04T07:56:24.207Z,96963.59
2023-06-04T07:57:26.257Z,96959.69
2023-06-04T07:58:28.104Z,96975.50
2023-06-04T07:59:30.916Z,96971.34
2023-06-04T08:00:32.668Z,96968.47
2023-06-04T08:01:34.424Z,96979.81
2023-06-04T08:02:36.227Z,96979.56
2023-06-04T08:03:43.338Z,96978.03
2023-06-04T08:04:48.747Z,96980.69
2023-06-04T08:05:50.843Z,96977.00
2023-06-04T08:06:53.096Z,96976.28
2023-06-04T08:07:55.236Z,96975.78
2023-06-04T08:08:57.010Z,96973.69
2023-06-04T08:09:58.849Z,96975.88
2023-06-04T08:11:00.970Z,96980.09
2023-06-04T08:12:02.802Z,96983.28
2023-06-04T08:13:05.058Z,96980.91
2023-06-04T08:14:06.835Z,96978.00
2023-06-04T08:15:09.358Z,96980.41
2023-06-04T08:16:11.600Z,96980.72
2023-06-04T08:17:13.497Z,96982.63
2023-06-04T08:18:18.500Z,96979.75
2023-06-04T08:19:20.441Z,96979.75
2023-06-04T08:20:22.473Z,96981.31
2023-06-04T08:21:28.560Z,96987.16
2023-06-04T08:22:30.474Z,96982.44
2023-06-04T08:23:32.257Z,96994.09
2023-06-04T08:24:34.129Z,96987.78
2023-06-04T08:25:35.944Z,96986.50
2023-06-04T08:26:37.747Z,96987.84
2023-06-04T08:27:39.484Z,96984.72
2023-06-04T08:28:41.310Z,96982.06
2023-06-04T08:29:43.024Z,96981.06
2023-06-04T08:30:44.869Z,96988.47
2023-06-04T08:31:47.164Z,96987.16
2023-06-04T08:32:50.010Z,96989.13
2023-06-04T08:33:52.025Z,96992.31
2023-06-04T08:34:53.877Z,96998.69
2023-06-04T08:35:55.650Z,96999.81
2023-06-04T08:36:58.496Z,96995.06
2023-06-04T08:38:00.777Z,96997.19
2023-06-04T08:39:02.675Z,97004.41
2023-06-04T08:40:06.401Z,97002.88
2023-06-04T08:41:15.301Z,97002.59
2023-06-04T08:42:21.444Z,97003.69
2023-06-04T08:43:23.347Z,96994.75
2023-06-04T08:44:25.114Z,97003.22
2023-06-04T08:45:27.776Z,97001.13
2023-06-04T08:46:32.993Z,97006.72
2023-06-04T08:47:35.889Z,97002.75
2023-06-04T08:48:38.916Z,97013.38
2023-06-04T08:49:42.293Z,97008.09
2023-06-04T08:50:46.538Z,97004.41
2023-06-04T08:51:48.839Z,97005.50
2023-06-04T08:52:55.132Z,97005.81
2023-06-04T08:53:58.756Z,97007.69
2023-06-04T08:55:00.660Z,97005.38
2023-06-04T08:56:02.533Z,97011.19
2023-06-04T08:57:04.901Z,97011.22
2023-06-04T08:58:09.616Z,97012.59
2023-06-04T08:59:12.381Z,97006.50
2023-06-04T09:00:14.998Z,97012.88
2023-06-04T09:01:17.627Z,97017.44
2023-06-04T09:02:19.567Z,97012.72
2023-06-04T09:03:21.997Z,97012.56
2023-06-04T09:04:24.120Z,97010.50
2023-06-04T09:05:26.280Z,97012.38
2023-06-04T09:06:28.103Z,97002.88
2023-06-04T09:07:30.712Z,97005.03
2023-06-04T09:08:33.188Z,97009.56
2023-06-04T09:09:48.749Z,97008.53
2023-06-04T09:10:56.631Z,97013.09
2023-06-04T09:11:58.677Z,97000.97
2023-06-04T09:13:02.776Z,97007.09
2023-06-04T09:14:08.057Z,97002.88
2023-06-04T09:15:09.943Z,96996.81
2023-06-04T09:16:11.898Z,96997.91
2023-06-04T09:17:13.760Z,97001.38
2023-06-04T09:18:16.010Z,97003.53
2023-06-04T09:19:18.640Z,97005.88
2023-06-04T09:20:21.355Z,96992.16
2023-06-04T09:21:23.254Z,96999.84
2023-06-04T09:22:35.161Z,96995.09
2023-06-04T09:23:38.816Z,97002.75
2023-06-04T09:24:41.785Z,97002.25
2023-06-04T09:25:44.984Z,97002.25
2023-06-04T09:26:47.515Z,97002.53
2023-06-04T09:27:50.379Z,97000.22
2023-06-04T09:28:54.474Z,97006.84
2023-06-04T09:30:00.648Z,97001.28
2023-06-04T09:31:04.076Z,96997.81
2023-06-04T09:32:05.980Z,97003.94
2023-06-04T09:33:08.852Z,97007.13
2023-06-04T09:34:11.194Z,97006.09
2023-06-04T09:35:17.438Z,97002.13
2023-06-04T09:36:19.561Z,97005.84
2023-06-04T09:37:23.535Z,97001.34
2023-06-04T09:38:34.037Z,97004.53
2023-06-04T09:39:35.856Z,97009.03
2023-06-04T09:40:38.845Z,96998.97
2023-06-04T09:41:41.170Z,97008.03
2023-06-04T09:42:44.110Z,97011.75
2023-06-04T09:43:45.943Z,97011.50
2023-06-04T09:44:47.710Z,97011.50
2023-06-04T09:45:49.656Z,97011.53
2023-06-04T09:46:56.024Z,97013.38
2023-06-04T09:47:58.038Z,97007.56
2023-06-04T09:49:04.080Z,97000.94
2023-06-04T09:50:06.529Z,97000.94
2023-06-04T09:51:16.819Z,97005.72
2023-06-04T09:52:18.859Z,97004.66
2023-06-04T09:53:29.730Z,96998.31
2023-06-04T09:54:37.725Z,97004.41
2023-06-04T09:55:39.560Z,97005.72
2023-06-04T09:56:42.316Z,96999.34
2023-06-04T09:57:45.973Z,96998.53
2023-06-04T09:58:49.886Z,96997.75
2023-06-04T09:59:51.607Z,97003.84
2023-06-04T10:00:55.257Z,96999.34
2023-06-04T10:01:57.236Z,97001.72
2023-06-04T10:03:02.568Z,96998.53
2023-06-04T10:04:05.238Z,97008.34
2023-06-04T10:05:10.362Z,97000.41
2023-06-04T10:06:16.073Z,97000.16
2023-06-04T10:07:18.504Z,97006.50
2023-06-04T10:08:23.013Z,97000.66
2023-06-04T10:09:27.420Z,97007.56
2023-06-04T10:10:29.909Z,97005.72
2023-06-04T10:11:34.541Z,97007.28
2023-06-04T10:12:38.402Z,97001.72
2023-06-04T10:13:44.816Z,97004.09
2023-06-04T10:14:55.779Z,97003.31
2023-06-04T10:16:00.153Z,97003.03
2023-06-04T10:17:02.503Z,97002.00
2023-06-04T10:18:05.266Z,97003.31
2023-06-04T10:19:08.439Z,97001.44
2023-06-04T10:20:11.915Z,97000.41
2023-06-04T10:21:17.718Z,97011.00
2023-06-04T10:22:20.786Z,97006.75
2023-06-04T10:23:23.652Z,97009.69
2023-06-04T10:24:27.894Z,97005.19
2023-06-04T10:25:30.013Z,97005.19
2023-06-04T10:26:33.930Z,97011.28
2023-06-04T10:27:36.658Z,97011.53
2023-06-04T10:28:38.394Z,97006.50
2023-06-04T10:29:41.014Z,97013.13
2023-06-04T10:30:42.737Z,97008.34
2023-06-04T10:31:45.339Z,97004.63
2023-06-04T10:32:48.154Z,97004.63
2023-06-04T10:33:54.705Z,97008.91
2023-06-04T10:34:58.660Z,97001.19
2023-06-04T10:36:16.582Z,97003.84
2023-06-04T10:37:22.715Z,97005.19
2023-06-04T10:38:25.310Z,97007.31
2023-06-04T10:39:30.921Z,97004.41
2023-06-04T10:40:36.126Z,97003.63
2023-06-04T10:41:38.368Z,97005.19
2023-06-04T10:42:42.350Z,97008.38
2023-06-04T10:43:47.823Z,97002.53
2023-06-04T10:44:51.167Z,97004.66
2023-06-04T10:45:52.921Z,96997.78
2023-06-04T10:46:54.797Z,97001.75
2023-06-04T10:48:03.529Z,97004.69
2023-06-04T10:49:05.364Z,96997.25
2023-06-04T10:50:13.902Z,97000.97
2023-06-04T10:51:16.308Z,97002.84
2023-06-04T10:52:18.506Z,97004.16
2023-06-04T10:53:21.380Z,96999.94
2023-06-04T10:54:25.546Z,96999.97
2023-06-04T10:55:27.381Z,97005.78
2023-06-04T10:56:30.247Z,96999.19
2023-06-04T10:57:33.254Z,97003.13
2023-06-04T10:58:35.398Z,97007.91
2023-06-04T10:59:37.292Z,97004.75
2023-06-04T11:00:39.811Z,97002.34
2023-06-04T11:01:41.685Z,97005.78
2023-06-04T11:02:53.600Z,97011.63
2023-06-04T11:03:56.696Z,97007.94
2023-06-04T11:05:07.098Z,97005.25
2023-06-04T11:06:18.489Z,96999.41
2023-06-04T11:07:21.060Z,97010.00
2023-06-04T11:08:30.017Z,97004.94
2023-06-04T11:09:34.482Z,97002.28
2023-06-04T11:10:38.031Z,97000.44
2023-06-04T11:11:39.868Z,96998.84
2023-06-04T11:12:46.048Z,97001.50
2023-06-04T11:13:48.152Z,97008.16
2023-06-04T11:15:00.280Z,97000.72
2023-06-04T11:16:02.076Z,97000.44
2023-06-04T11:17:11.082Z,97003.09
2023-06-04T11:18:16.759Z,96997.25
2023-06-04T11:19:21.755Z,97003.63
2023-06-04T11:20:24.505Z,97004.97
2023-06-04T11:21:28.015Z,97000.72
2023-06-04T11:22:30.088Z,97008.44
2023-06-04T11:23:31.971Z,97004.47
2023-06-04T11:24:33.963Z,97005.25
2023-06-04T11:25:36.370Z,97002.81
2023-06-04T11:26:41.086Z,96998.31
2023-06-04T11:27:46.584Z,96999.94
2023-06-04T11:28:51.412Z,97003.88
2023-06-04T11:29:53.896Z,96998.88
2023-06-04T11:31:07.523Z,96994.63
2023-06-04T11:32:09.462Z,96998.09
2023-06-04T11:33:11.265Z,96993.03
2023-06-04T11:34:33.390Z,96996.50
2023-06-04T11:35:43.090Z,96990.41
2023-06-04T11:36:44.854Z,96990.66
2023-06-04T11:37:56.577Z,96990.94
2023-06-04T11:39:02.206Z,96988.53
2023-06-04T11:40:07.954Z,96995.44
2023-06-04T11:41:10.049Z,96993.06
2023-06-04T11:42:12.215Z,96989.88
2023-06-04T11:43:14.472Z,96991.47
2023-06-04T11:44:19.319Z,96999.97
2023-06-04T11:45:23.620Z,96994.91
2023-06-04T11:46:25.815Z,96998.34
2023-06-04T11:47:27.578Z,96990.66
2023-06-04T11:48:30.510Z,96999.16
2023-06-04T11:49:32.660Z,96991.47
2023-06-04T11:50:34.761Z,96992.00
2023-06-04T11:51:37.341Z,96996.22
2023-06-04T11:52:39.318Z,96990.41
2023-06-04T11:53:41.405Z,96995.16
2023-06-04T11:54:43.191Z,96994.63
2023-06-04T11:55:45.060Z,96993.56
2023-06-04T11:56:47.802Z,96992.22
2023-06-04T11:57:52.547Z,96990.38
2023-06-04T11:58:55.923Z,96993.53
2023-06-04T11:59:58.176Z,96987.69
2023-06-04T12:01:01.281Z,96991.13
2023-06-04T12:02:03.122Z,96976.75
2023-06-04T12:03:05.121Z,96977.53
2023-06-04T12:04:16.537Z,96977.81
2023-06-04T12:05:22.035Z,96978.06
2023-06-04T12:06:23.890Z,96977.50
2023-06-04T12:07:25.848Z,96980.94
2023-06-04T12:08:27.700Z,96972.97
2023-06-04T12:09:30.631Z,96980.69
2023-06-04T12:10:38.259Z,96970.06
2023-06-04T12:11:42.816Z,96986.00
2023-06-04T12:12:44.628Z,96980.16
2023-06-04T12:13:46.488Z,96973.78
2023-06-04T12:14:48.435Z,96975.38
2023-06-04T12:15:55.950Z,96981.47
2023-06-04T12:16:57.781Z,96985.19
2023-06-04T12:17:59.807Z,96979.09
2023-06-04T12:19:08.861Z,96980.66
2023-06-04T12:20:10.811Z,96972.66